ADDS METAR Data INFO
IDs: Format: Raw Decoded Include TAF

Data at: 0440 UTC 24 Apr 2018

K82V 240435Z AUTO 35015G23KT 10SM SCT014 BKN060 BKN070 02/01 A3027 RMK AO2 PWINO
K82V 240415Z AUTO 35021G29KT 10SM SCT010 BKN016 02/01 A3026 RMK AO2 PWINO
K82V 240355Z AUTO 35014G22KT 10SM OVC010 03/02 A3025 RMK AO2 PWINO
K82V 240335Z AUTO 35021G32KT 10SM SCT008 OVC013 03/02 A3022 RMK AO2 PWINO
K82V 240315Z AUTO 35020G28KT 10SM BKN008 OVC012 03/03 A3021 RMK AO2 PWINO
K82V 240255Z AUTO 35017G31KT 10SM BKN008 BKN014 OVC048 04/03 A3021 RMK AO2 LTG DSNT E PWINO
K82V 240235Z AUTO 35024G32KT 10SM OVC010 04/03 A3018 RMK AO2 PWINO
K82V 240215Z AUTO 35027G37KT 10SM SCT010 SCT025 BKN055 05/05 A3016 RMK AO2 LTG DSNT SE PWINO
K82V 240155Z AUTO 01020G27KT 7SM SCT027 BKN038 OVC085 06/06 A3013 RMK AO2 LTG DSNT E PWINO
K82V 240135Z AUTO 35024G39KT 5SM VCTS SCT021 BKN037 OVC085 07/06 A3013 RMK AO2 LTG DSNT SW THRU NE
K82V 240115Z AUTO 32015G19KT 10SM SCT060 BKN080 OVC100 11/07 A3013 RMK AO2 LTG DSNT ALQS PWINO
K82V 240055Z AUTO 00000KT 5SM TS SCT025 SCT043 OVC060 11/08 A3007 RMK AO2 LTG DSNT ALQS
K82V 240035Z AUTO 32024G33KT 10SM VCTS BKN060 OVC075 13/04 A3003 RMK AO2 LTG DSNT S THRU NW
K82V 240015Z AUTO 06011KT 10SM BKN075 OVC085 14/05 A3000 RMK AO2 LTG DSNT W PWINO
K82V 232355Z AUTO 06013G17KT 10SM BKN085 OVC100 15/05 A2999 RMK AO2 PWINO
K82V 232335Z AUTO 07012G17KT 10SM VCTS SCT075 BKN095 BKN120 16/03 A3000 RMK AO2 LTG DSNT N AND NW
K82V 232315Z AUTO 09012G15KT 10SM SCT055 BKN095 OVC110 17/03 A3001 RMK AO2 PWINO
K82V 232255Z AUTO 07012KT 10SM SCT065 OVC075 17/03 A3001 RMK AO2 PWINO
K82V 232235Z AUTO 10009G16KT 10SM OVC070 17/02 A3001 RMK AO2 LTG DSNT NW PWINO
K82V 232215Z AUTO 10010G17KT 10SM SCT070 BKN080 BKN090 17/02 A3001 RMK AO2 PWINO
K82V 232155Z AUTO 12009G18KT 10SM CLR 18/01 A3001 RMK AO2 PWINO
K82V 232135Z AUTO 10010G15KT 061V121 10SM CLR 19/02 A3001 RMK AO2 PWINO
K82V 232115Z AUTO 04010KT 10SM SCT055 SCT070 19/01 A3003 RMK AO2 LTG DSNT N AND NW PWINO
K82V 232055Z AUTO 22007KT 191V251 10SM SCT055 BKN070 OVC100 17/00 A3006 RMK AO2 PWINO
K82V 232035Z AUTO 19007G14KT 10SM SCT070 BKN100 BKN120 17/00 A3005 RMK AO2 PWINO
K82V 232015Z AUTO 15013G21KT 10SM SCT110 18/00 A3001 RMK AO2 PWINO
K82V 231955Z AUTO 16013G20KT 10SM CLR 19/01 A3001 RMK AO2 LTG DSNT N PWINO
K82V 231935Z AUTO 14013G21KT 10SM CLR 18/01 A3002 RMK AO2 LTG DSNT NW PWINO
K82V 231915Z AUTO 16014G22KT 10SM CLR 18/01 A3003 RMK AO2 PWINO
K82V 231855Z AUTO 14015G19KT 10SM CLR 18/01 A3004 RMK AO2 PWINO
K82V 231835Z AUTO 14011G18KT 10SM CLR 18/01 A3005 RMK AO2 PWINO
K82V 231815Z AUTO 15010G14KT 10SM CLR 17/01 A3007 RMK AO2 PWINO
K82V 231755Z AUTO 14009G15KT 10SM CLR 17/00 A3008 RMK AO2 PWINO
K82V 231735Z AUTO 15007G18KT 10SM CLR 16/01 A3008 RMK AO2 PWINO
K82V 231715Z AUTO 17009KT 10SM CLR 16/01 A3008 RMK AO2 PWINO
K82V 231655Z AUTO 15012G18KT 10SM CLR 16/01 A3008 RMK AO2 PWINO
K82V 231635Z AUTO 16010KT 10SM CLR 15/01 A3009 RMK AO2 PWINO
K82V 231615Z AUTO 15012G16KT 10SM CLR 15/02 A3009 RMK AO2 PWINO
K82V 231555Z AUTO 15012KT 10SM CLR 15/02 A3009 RMK AO2 PWINO
K82V 231535Z AUTO 15011G14KT 10SM CLR 13/03 A3010 RMK AO2 PWINO
K82V 231515Z AUTO 15004KT 10SM CLR 11/04 A3010 RMK AO2 PWINO
K82V 231455Z AUTO 17003KT 10SM CLR 08/04 A3010 RMK AO2 PWINO
K82V 231435Z AUTO 00000KT 10SM CLR 06/04 A3011 RMK AO2 PWINO
K82V 231415Z AUTO 00000KT 10SM CLR 05/03 A3011 RMK AO2 PWINO
K82V 231355Z AUTO 00000KT 10SM CLR 03/02 A3011 RMK AO2 PWINO
K82V 231335Z AUTO 10SM CLR 01/01 A3011 RMK AO2 PWINO
K82V 231315Z AUTO 10SM CLR 00/00 A3011 RMK AO2 PWINO
K82V 231255Z AUTO 10SM CLR M01/M01 A3011 RMK AO2 PWINO
K82V 231235Z AUTO 10SM CLR M02/M02 A3010 RMK AO2 PWINO
K82V 231215Z AUTO 10SM CLR M02/M02 A3010 RMK AO2 PWINO
K82V 231155Z AUTO 10SM CLR M01/M01 A3009 RMK AO2 PWINO
K82V 231135Z AUTO 10SM CLR M01/M01 A3009 RMK AO2 PWINO
K82V 231115Z AUTO 10SM CLR M02/M02 A3009 RMK AO2 PWINO
K82V 231055Z AUTO 10SM CLR M01/M01 A3010 RMK AO2 PWINO
K82V 231035Z AUTO 10SM CLR M02/M02 A3011 RMK AO2 PWINO
K82V 231015Z AUTO 10SM CLR M01/M01 A3011 RMK AO2 PWINO
K82V 230955Z AUTO 10SM CLR M01/M01 A3011 RMK AO2 PWINO
K82V 230935Z AUTO 10SM CLR M01/M01 A3011 RMK AO2 PWINO
K82V 230915Z AUTO 10SM CLR M01/M01 A3011 RMK AO2 PWINO
K82V 230855Z AUTO 10SM CLR 00/00 A3011 RMK AO2 PWINO
K82V 230835Z AUTO 10SM CLR 00/00 A3012 RMK AO2 PWINO
K82V 230815Z AUTO 10SM CLR 00/00 A3012 RMK AO2 PWINO
K82V 230755Z AUTO 10SM CLR 02/01 A3013 RMK AO2 PWINO
K82V 230735Z AUTO 10SM CLR 03/01 A3014 RMK AO2 PWINO
K82V 230715Z AUTO 10SM CLR 03/02 A3014 RMK AO2 PWINO
K82V 230655Z AUTO 10SM CLR 03/02 A3014 RMK AO2 PWINO
K82V 230635Z AUTO 10SM CLR 03/02 A3014 RMK AO2 PWINO
K82V 230615Z AUTO 10SM CLR 03/01 A3014 RMK AO2 PWINO
K82V 230555Z AUTO 10SM CLR 03/01 A3015 RMK AO2 PWINO
K82V 230535Z AUTO 10SM CLR 05/02 A3014 RMK AO2 PWINO
K82V 230515Z AUTO 10SM CLR 05/02 A3015 RMK AO2 PWINO
K82V 230455Z AUTO 10SM CLR 05/02 A3015 RMK AO2 PWINO
K82V 230435Z AUTO 10SM CLR 06/02 A3015 RMK AO2 PWINO
K82V 230415Z AUTO 10SM CLR 06/02 A3015 RMK AO2 PWINO
K82V 230355Z AUTO 10SM CLR 06/02 A3014 RMK AO2 PWINO
K82V 230335Z AUTO 10SM CLR 07/02 A3015 RMK AO2 PWINO
K82V 230315Z AUTO 10SM CLR 06/02 A3014 RMK AO2 PWINO
K82V 230255Z AUTO 10SM CLR 07/02 A3013 RMK AO2 PWINO
K82V 230235Z AUTO 17009KT 10SM CLR 07/02 A3013 RMK AO2 PWINO
K82V 230215Z AUTO 15007KT 10SM CLR 09/02 A3012 RMK AO2 PWINO
K82V 230155Z AUTO 14007G15KT 10SM CLR 10/02 A3011 RMK AO2 PWINO
K82V 230135Z AUTO 15010KT 10SM CLR 11/02 A3011 RMK AO2 PWINO
K82V 230115Z AUTO 14013G16KT 10SM CLR 13/02 A3010 RMK AO2 PWINO
K82V 230055Z AUTO 10007KT 10SM CLR 15/00 A3010 RMK AO2 PWINO
K82V 230035Z AUTO 11006KT 10SM CLR 16/00 A3010 RMK AO2 PWINO
K82V 230015Z AUTO 00000KT 10SM CLR 16/M01 A3010 RMK AO2 PWINO
K82V 222355Z AUTO 00000KT 10SM CLR 16/M02 A3010 RMK AO2 PWINO
K82V 222335Z AUTO 00000KT 10SM CLR 16/M02 A3010 RMK AO2 PWINO
K82V 222315Z AUTO 06004KT 10SM CLR 17/M01 A3010 RMK AO2 PWINO
K82V 222255Z AUTO 00000KT 10SM CLR 16/M01 A3010 RMK AO2 PWINO
K82V 222235Z AUTO 00000KT 10SM CLR 16/M01 A3011 RMK AO2 PWINO
K82V 222215Z AUTO 04004KT 10SM CLR 16/00 A3011 RMK AO2 PWINO
K82V 222155Z AUTO 00000KT 10SM CLR 17/00 A3012 RMK AO2 PWINO
K82V 222135Z AUTO 01005KT 10SM CLR 16/00 A3012 RMK AO2 PWINO
K82V 222115Z AUTO 09004KT 10SM CLR 16/00 A3012 RMK AO2 PWINO
K82V 222055Z AUTO 02005KT 10SM CLR 16/00 A3013 RMK AO2 PWINO
K82V 222035Z AUTO 06007KT 10SM CLR 16/00 A3014 RMK AO2 PWINO
K82V 222015Z AUTO 01004KT 10SM CLR 16/00 A3015 RMK AO2 PWINO
K82V 221955Z AUTO 03008KT 10SM CLR 15/00 A3015 RMK AO2 PWINO
K82V 221935Z AUTO 04007KT 351V071 10SM CLR 15/02 A3015 RMK AO2 PWINO
K82V 221915Z AUTO 36005KT 10SM CLR 14/03 A3016 RMK AO2 PWINO
K82V 221855Z AUTO 32004KT 10SM CLR 13/02 A3017 RMK AO2 PWINO
K82V 221835Z AUTO 04004KT 10SM CLR 13/02 A3017 RMK AO2 PWINO
K82V 221815Z AUTO 05009KT 10SM CLR 13/02 A3018 RMK AO2 PWINO
K82V 221755Z AUTO 36003KT 10SM CLR 12/02 A3019 RMK AO2 PWINO
K82V 221735Z AUTO 36003KT 10SM CLR 12/01 A3019 RMK AO2 PWINO
K82V 221715Z AUTO 02003KT 10SM CLR 11/01 A3020 RMK AO2 PWINO
K82V 221655Z AUTO 33005KT 10SM CLR 10/02 A3019 RMK AO2 PWINO